Ashford, WA

11:23 AM PDT on August 24, 2016 (GMT -0700)
Paradise Estates | | Change Station
Active Advisory: Fire Weather Watch

Elev 1722 ft 46.73 °N, 122.01 °W | Updated 30 seconds ago

Clear
Clear
74.1 °F
Feels Like 77 °F
N
3.1
Wind Variable Wind from NNE
Gusts 3.1 mph

Today
High -- | Low -- °F
--% Chance of Precip.
Yesterday
High -- | Low -- °F
Precip. -- in
Pressure 30.24 in
Visibility -9999.0 miles
Clouds Clear
Heat Index 77 °F
Dew Point 55 °F
Humidity 51%
Rainfall 0.00 in
Snow Depth Not available.
6:18 AM 8:01 PM
Waning Gibbous, 54% visible
METAR KPLU 241815Z AUTO 00000KT CLR 24/12 A3024 RMK AO2
Pressure 30.24 in
Visibility -9999.0 miles
Clouds Clear
Heat Index 77 °F
Dew Point 55 °F
Humidity 51%
Rainfall 0.00 in
Snow Depth Not available.
6:18 AM 8:01 PM
Waning Gibbous, 54% visible
METAR KPLU 241815Z AUTO 00000KT CLR 24/12 A3024 RMK AO2

10-Day Weather Forecast

Almanac

Astronomy

Aug. 24, 2016 Rise Set
Actual Time
Civil Twilight
Nautical Twilight
Astronomical Twilight
Moon
Length of Visible Light
Length of Day
Tomorrow will be .
, % of the Moon is Illuminated

Today's Extremes

State Highs State Lows

Community

WunderPhotos

Upload Photos

1,934,664 photos uploaded!

WunderBlog® & News

Nearby

Air Quality

  Air Quality AQ Index Pollutant
Not available.

Snow Depth

Station Depth Elevation

Earthquake Activity

City Distance Mag. Time & Date
Minimum magnitude displayed is 2.5.

Coastal Water Temperatures

Place Temperature

Stations

Nearby Weather Stations

Station Location Temp. Windchill Dew Point Humidity Wind Precip. Elev Updated Type
                   

Watches & Warnings

Fire Weather Watch
Issued: 8:45 AM PDT Aug. 24, 2016 – National Weather Service

... Fire Weather Watch now in effect from Thursday morning through
Thursday evening for low relative humidity combined with a
moderate breeze for fire weather zones 650... 654... 655 and 657...

* affected area... fire weather zone 650. Fire weather zone 654.
Fire weather zone 655. Fire weather zone 657. This includes the
north coastal lowlands... as well as the central and southern
Puget Sound lowlands.

* Wind... north wind 8 to 14 mph with gusts to 20 mph. Strongest
near Puget Sound and along the I-5 corridor.

* Humidity... 20 percent and 30 percent from mid-day through early
evening on Thursday... but some spots could drop into the upper
teens.

* Impacts... a combination of a moderate breeze... low relative
humidity and warm temperatures can contribute to rapid rates of
spread and downwind spotting on any fires that get started. This
applies to grassy roadside locations as well as forested areas.

Precautionary/preparedness actions...

A Fire Weather Watch means that critical fire weather conditions
are forecast to occur. Monitor the forecasts for possible red
flag warnings.